createdAt,value
2023-04-01T00:00:35.972Z,99618.56
2023-04-01T00:03:13.755Z,99628.78
2023-04-01T00:05:49.037Z,99618.53
2023-04-01T00:09:32.032Z,99632.44
2023-04-01T00:12:03.536Z,99623.72
2023-04-01T00:15:30.405Z,99632.25
2023-04-01T00:21:38.332Z,99636.38
2023-04-01T00:24:05.989Z,99630.56
2023-04-01T00:26:33.582Z,99628.00
2023-04-01T00:29:01.910Z,99633.31
2023-04-01T00:31:30.021Z,99630.69
2023-04-01T00:33:57.891Z,99631.63
2023-04-01T00:36:26.247Z,99642.84
2023-04-01T00:38:53.992Z,99644.81
2023-04-01T00:41:22.568Z,99647.50
2023-04-01T00:43:52.144Z,99646.50
2023-04-01T00:46:20.494Z,99643.72
2023-04-01T00:48:56.328Z,99641.16
2023-04-01T00:51:28.278Z,99647.22
2023-04-01T00:53:59.180Z,99653.69
2023-04-01T00:56:33.300Z,99658.59
2023-04-01T00:59:19.771Z,99649.88
2023-04-01T01:01:48.186Z,99653.25
2023-04-01T01:04:42.047Z,99662.03
2023-04-01T01:07:15.003Z,99652.53
2023-04-01T01:10:05.979Z,99647.50
2023-04-01T01:12:47.090Z,99642.34
2023-04-01T01:15:49.907Z,99649.41
2023-04-01T01:18:17.529Z,99661.41
2023-04-01T01:21:18.716Z,99663.09
2023-04-01T01:24:23.825Z,99652.59
2023-04-01T01:27:04.084Z,99656.94
2023-04-01T01:29:57.131Z,99635.22
2023-04-01T01:32:40.021Z,99651.06
2023-04-01T01:35:44.734Z,99645.97
2023-04-01T01:38:25.458Z,99631.34
2023-04-01T01:41:02.467Z,99638.19
2023-04-01T01:43:36.751Z,99642.66
2023-04-01T01:46:10.882Z,99624.38
2023-04-01T01:48:39.865Z,99638.25
2023-04-01T01:51:07.943Z,99633.94
2023-04-01T01:53:36.696Z,99636.53
2023-04-01T01:56:04.809Z,99643.31
2023-04-01T01:58:42.266Z,99642.34
2023-04-01T02:01:18.487Z,99631.38
2023-04-01T02:03:48.079Z,99630.31
2023-04-01T02:06:20.211Z,99648.69
2023-04-01T02:09:07.817Z,99633.84
2023-04-01T02:11:49.583Z,99639.81
2023-04-01T02:14:23.625Z,99626.72
2023-04-01T02:16:58.229Z,99620.69
2023-04-01T02:19:33.049Z,99635.69
2023-04-01T02:22:03.897Z,99640.25
2023-04-01T02:24:34.617Z,99641.97
2023-04-01T02:27:02.585Z,99631.47
2023-04-01T02:29:31.494Z,99638.44
2023-04-01T02:32:00.104Z,99641.84
2023-04-01T02:34:28.117Z,99644.44
2023-04-01T02:36:57.201Z,99629.03
2023-04-01T02:39:26.675Z,99626.44
2023-04-01T02:41:54.393Z,99618.53
2023-04-01T02:44:21.911Z,99629.13
2023-04-01T02:46:49.596Z,99617.22
2023-04-01T02:49:17.237Z,99624.03
2023-04-01T02:51:46.023Z,99629.28
2023-04-01T02:54:13.730Z,99633.75
2023-04-01T02:56:41.430Z,99645.00
2023-04-01T02:59:08.970Z,99643.22
2023-04-01T03:01:36.759Z,99639.75
2023-04-01T03:04:05.081Z,99652.16
2023-04-01T03:06:32.656Z,99646.03
2023-04-01T03:09:00.177Z,99656.38
2023-04-01T03:11:28.036Z,99657.16
2023-04-01T03:13:55.666Z,99643.13
2023-04-01T03:16:23.747Z,99639.66
2023-04-01T03:18:53.758Z,99644.72
2023-04-01T03:21:24.153Z,99639.66
2023-04-01T03:23:51.977Z,99643.97
2023-04-01T03:26:20.168Z,99656.28
2023-04-01T03:28:47.793Z,99650.28
2023-04-01T03:31:17.241Z,99649.34
2023-04-01T03:33:51.156Z,99641.63
2023-04-01T03:36:19.325Z,99632.91
2023-04-01T03:38:48.099Z,99643.28
2023-04-01T03:41:22.144Z,99633.72
2023-04-01T03:43:49.839Z,99652.88
2023-04-01T03:46:21.928Z,99664.25
2023-04-01T03:48:49.731Z,99664.34
2023-04-01T03:51:17.427Z,99666.13
2023-04-01T03:53:45.007Z,99663.31
2023-04-01T03:56:13.099Z,99661.69
2023-04-01T03:58:40.775Z,99677.44
2023-04-01T04:01:22.079Z,99667.00
2023-04-01T04:03:53.708Z,99670.47
2023-04-01T04:06:24.239Z,99666.97
2023-04-01T04:08:52.547Z,99680.16
2023-04-01T04:11:21.200Z,99679.25
2023-04-01T04:13:49.588Z,99671.41
2023-04-01T04:16:18.481Z,99681.84
2023-04-01T04:18:52.087Z,99677.50
2023-04-01T04:21:20.659Z,99683.59
2023-04-01T04:23:48.240Z,99682.59
2023-04-01T04:26:18.264Z,99674.59
2023-04-01T04:28:52.371Z,99678.81
2023-04-01T04:31:22.365Z,99663.88
2023-04-01T04:33:52.425Z,99674.56
2023-04-01T04:36:21.143Z,99696.47
2023-04-01T04:38:50.935Z,99700.88
2023-04-01T04:41:19.863Z,99684.31
2023-04-01T04:43:57.607Z,99696.41
2023-04-01T04:46:27.132Z,99678.97
2023-04-01T04:49:01.371Z,99685.00
2023-04-01T04:51:29.397Z,99686.81
2023-04-01T04:53:58.171Z,99694.88
2023-04-01T04:56:37.564Z,99694.16
2023-04-01T04:59:09.673Z,99706.28
2023-04-01T05:01:46.525Z,99706.19
2023-04-01T05:04:14.784Z,99708.78
2023-04-01T05:06:45.354Z,99708.78
2023-04-01T05:09:14.186Z,99721.06
2023-04-01T05:11:42.459Z,99706.16
2023-04-01T05:14:17.974Z,99706.09
2023-04-01T05:16:55.490Z,99707.63
2023-04-01T05:19:24.380Z,99704.22
2023-04-01T05:21:53.932Z,99706.19
2023-04-01T05:24:21.518Z,99714.84
2023-04-01T05:26:49.257Z,99721.88
2023-04-01T05:29:16.748Z,99720.13
2023-04-01T05:31:46.289Z,99706.16
2023-04-01T05:34:14.693Z,99711.34
2023-04-01T05:36:43.110Z,99705.34
2023-04-01T05:39:10.910Z,99721.84
2023-04-01T05:41:39.913Z,99737.56
2023-04-01T05:44:07.368Z,99727.91
2023-04-01T05:46:40.583Z,99724.38
2023-04-01T05:49:28.921Z,99716.50
2023-04-01T05:51:57.380Z,99724.38
2023-04-01T05:54:24.920Z,99742.69
2023-04-01T05:56:52.743Z,99739.06
2023-04-01T05:59:21.371Z,99729.50
2023-04-01T06:01:49.029Z,99730.31
2023-04-01T06:04:18.796Z,99733.63
2023-04-01T06:06:47.218Z,99729.41
2023-04-01T06:09:18.238Z,99732.81
2023-04-01T06:12:09.880Z,99739.69
2023-04-01T06:14:57.302Z,99737.06
2023-04-01T06:17:44.286Z,99731.66
2023-04-01T06:20:27.141Z,99729.34
2023-04-01T06:23:11.844Z,99727.47
2023-04-01T06:25:46.455Z,99731.81
2023-04-01T06:28:38.882Z,99733.44
2023-04-01T06:31:06.478Z,99739.47
2023-04-01T06:34:07.903Z,99760.81
2023-04-01T06:37:01.559Z,99744.78
2023-04-01T06:40:10.007Z,99762.09
2023-04-01T06:43:02.428Z,99770.66
2023-04-01T06:46:08.934Z,99762.53
2023-04-01T06:49:07.731Z,99764.06
2023-04-01T06:52:36.101Z,99766.66
2023-04-01T06:55:22.869Z,99765.53
2023-04-01T06:58:20.759Z,99767.16
2023-04-01T07:00:53.135Z,99766.91
2023-04-01T07:03:38.668Z,99774.34
2023-04-01T07:06:39.572Z,99772.66
2023-04-01T07:09:13.061Z,99782.50
2023-04-01T07:13:17.240Z,99785.38
2023-04-01T07:20:22.037Z,99782.56
2023-04-01T07:23:04.667Z,99793.50
2023-04-01T07:26:25.449Z,99785.81
2023-04-01T07:29:28.103Z,99792.75
2023-04-01T07:32:19.380Z,99799.94
2023-04-01T07:35:10.109Z,99798.22
2023-04-01T07:37:43.603Z,99795.03
2023-04-01T07:40:11.192Z,99802.28
2023-04-01T07:43:06.351Z,99803.03
2023-04-01T07:45:54.567Z,99789.41
2023-04-01T08:02:16.934Z,99816.59
2023-04-01T08:06:09.872Z,99811.56
2023-04-01T08:09:07.045Z,99814.28
2023-04-01T08:13:39.989Z,99816.38
2023-04-01T08:31:37.585Z,99826.38
2023-04-01T08:34:19.512Z,99810.31
2023-04-01T08:37:10.705Z,99808.97
2023-04-01T08:40:01.388Z,99813.47
2023-04-01T08:43:05.771Z,99809.41
2023-04-01T08:45:57.243Z,99809.41
2023-04-01T08:48:58.859Z,99813.31
2023-04-01T08:51:48.821Z,99825.16
2023-04-01T08:54:30.727Z,99827.59
2023-04-01T08:57:22.780Z,99828.72
2023-04-01T09:00:21.847Z,99823.72
2023-04-01T09:03:38.729Z,99825.25
2023-04-01T09:06:32.863Z,99831.81
2023-04-01T09:09:27.086Z,99831.03
2023-04-01T09:12:13.869Z,99839.53
2023-04-01T09:15:26.164Z,99832.38
2023-04-01T09:18:24.668Z,99841.94
2023-04-01T09:21:11.713Z,99841.28
2023-04-01T09:23:58.037Z,99842.81
2023-04-01T09:27:02.172Z,99830.28
2023-04-01T09:30:04.140Z,99827.75
2023-04-01T09:33:06.432Z,99838.16
2023-04-01T09:35:51.910Z,99835.63
2023-04-01T09:38:51.984Z,99833.81
2023-04-01T09:41:58.050Z,99826.25
2023-04-01T09:44:57.747Z,99823.66
2023-04-01T09:47:47.346Z,99825.03
2023-04-01T09:50:37.844Z,99810.00
2023-04-01T09:53:30.632Z,99815.81
2023-04-01T09:56:49.289Z,99807.19
2023-04-01T10:00:46.892Z,99817.56
2023-04-01T10:06:58.062Z,99816.81
2023-04-01T10:09:54.979Z,99804.94
2023-04-01T10:12:40.826Z,99803.38
2023-04-01T10:15:37.219Z,99792.00
2023-04-01T10:18:09.076Z,99793.13
2023-04-01T10:20:36.757Z,99789.00
2023-04-01T10:23:36.274Z,99784.91
2023-04-01T10:26:10.090Z,99787.38
2023-04-01T10:47:04.191Z,99782.44
2023-04-01T11:21:53.358Z,99767.19
2023-04-01T12:23:48.263Z,99729.56
2023-04-01T12:27:40.212Z,99723.28
2023-04-01T12:35:11.250Z,99721.53
2023-04-01T12:38:46.829Z,99725.59
2023-04-01T13:09:01.891Z,99696.84
2023-04-01T13:12:29.969Z,99694.56
2023-04-01T13:15:29.592Z,99686.91
2023-04-01T13:18:18.755Z,99680.72
2023-04-01T13:20:55.503Z,99685.09
2023-04-01T13:24:11.160Z,99686.94
2023-04-01T13:27:06.612Z,99685.28
2023-04-01T13:29:49.607Z,99670.81
2023-04-01T13:36:16.967Z,99672.66
2023-04-01T13:39:48.061Z,99667.63
2023-04-01T13:42:41.148Z,99663.97
2023-04-01T13:45:27.904Z,99656.91
2023-04-01T13:48:04.773Z,99651.88
2023-04-01T13:51:08.759Z,99648.41
2023-04-01T13:53:53.219Z,99643.78
2023-04-01T13:56:35.623Z,99637.41
2023-04-01T13:59:27.708Z,99635.41
2023-04-01T14:02:34.312Z,99637.75
2023-04-01T14:05:10.844Z,99632.69
2023-04-01T14:07:57.157Z,99633.09
2023-04-01T14:11:02.070Z,99632.25
2023-04-01T14:14:08.248Z,99626.41
2023-04-01T14:16:58.587Z,99621.28
2023-04-01T14:19:47.636Z,99624.09
2023-04-01T14:23:10.158Z,99617.38
2023-04-01T14:25:46.917Z,99613.56
2023-04-01T14:28:42.011Z,99617.91
2023-04-01T14:31:24.637Z,99613.66
2023-04-01T14:34:13.034Z,99614.91
2023-04-01T14:36:58.679Z,99611.19
2023-04-01T14:40:30.066Z,99594.75
2023-04-01T14:43:21.258Z,99586.03
2023-04-01T14:46:15.799Z,99597.47
2023-04-01T14:49:03.844Z,99586.69
2023-04-01T14:51:40.735Z,99589.03
2023-04-01T14:54:30.483Z,99594.06
2023-04-01T14:57:14.155Z,99595.50
2023-04-01T14:59:50.883Z,99596.00
2023-04-01T15:03:09.068Z,99591.81
2023-04-01T15:05:54.766Z,99598.16
2023-04-01T15:08:27.958Z,99590.44
2023-04-01T15:10:58.422Z,99591.28
2023-04-01T15:13:34.801Z,99591.50
2023-04-01T15:16:02.262Z,99583.06
2023-04-01T15:18:51.528Z,99580.50
2023-04-01T15:21:35.185Z,99581.91
2023-04-01T15:24:39.442Z,99572.19
2023-04-01T15:27:13.939Z,99574.03
2023-04-01T15:29:53.362Z,99569.38
2023-04-01T15:32:31.284Z,99557.38
2023-04-01T15:35:16.415Z,99556.84
2023-04-01T15:37:56.949Z,99561.28
2023-04-01T15:40:43.201Z,99554.22
2023-04-01T15:43:25.535Z,99553.28
2023-04-01T15:45:59.297Z,99559.94
2023-04-01T15:48:40.592Z,99572.94
2023-04-01T15:51:21.414Z,99574.38
2023-04-01T15:54:03.953Z,99584.59
2023-04-01T15:56:51.038Z,99579.81
2023-04-01T16:00:12.021Z,99569.50
2023-04-01T16:02:53.915Z,99573.31
2023-04-01T16:05:27.097Z,99579.03
2023-04-01T16:08:02.572Z,99585.63
2023-04-01T16:10:45.580Z,99589.91
2023-04-01T16:13:45.159Z,99580.16
2023-04-01T16:17:01.793Z,99578.53
2023-04-01T16:19:50.179Z,99571.25
2023-04-01T16:22:27.662Z,99561.75
2023-04-01T16:25:32.969Z,99569.63
2023-04-01T16:28:35.288Z,99564.06
2023-04-01T16:31:28.801Z,99570.63
2023-04-01T16:34:17.234Z,99563.84
2023-04-01T16:36:53.883Z,99569.03
2023-04-01T16:39:36.413Z,99572.66
2023-04-01T16:42:29.949Z,99573.41
2023-04-01T16:45:09.446Z,99567.53
2023-04-01T16:47:42.266Z,99567.25
2023-04-01T16:50:25.121Z,99569.13
2023-04-01T16:53:04.417Z,99559.66
2023-04-01T16:55:52.113Z,99573.50
2023-04-01T16:58:26.005Z,99557.00
2023-04-01T17:01:10.184Z,99563.28
2023-04-01T17:03:46.848Z,99565.78
2023-04-01T17:06:45.225Z,99568.13
2023-04-01T17:09:37.303Z,99569.41
2023-04-01T17:12:45.191Z,99568.25
2023-04-01T17:15:31.462Z,99572.66
2023-04-01T17:18:05.022Z,99577.69
2023-04-01T17:20:39.358Z,99569.22
2023-04-01T17:23:21.354Z,99575.72
2023-04-01T17:26:06.917Z,99581.84
2023-04-01T17:29:16.327Z,99578.28
2023-04-01T17:32:03.914Z,99583.38
2023-04-01T17:34:34.926Z,99579.25
2023-04-01T17:37:17.441Z,99585.28
2023-04-01T17:39:54.483Z,99580.91
2023-04-01T17:42:40.953Z,99572.91
2023-04-01T17:45:17.596Z,99571.38
2023-04-01T17:47:55.767Z,99572.38
2023-04-01T17:50:37.602Z,99575.56
2023-04-01T17:53:43.169Z,99587.09
2023-04-01T17:56:23.536Z,99576.25
2023-04-01T17:59:04.042Z,99583.78
2023-04-01T18:01:44.350Z,99591.16
2023-04-01T18:04:38.559Z,99598.88
2023-04-01T18:07:26.621Z,99603.59
2023-04-01T18:10:26.460Z,99603.94
2023-04-01T18:13:31.444Z,99609.91
2023-04-01T18:16:19.340Z,99611.53
2023-04-01T18:19:02.726Z,99611.41
2023-04-01T18:21:50.009Z,99617.06
2023-04-01T18:24:43.126Z,99613.31
2023-04-01T18:27:10.645Z,99622.69
2023-04-01T18:29:46.941Z,99616.59
2023-04-01T18:32:17.123Z,99626.84
2023-04-01T18:35:15.572Z,99630.59
2023-04-01T18:38:24.690Z,99635.09
2023-04-01T18:41:14.092Z,99635.63
2023-04-01T18:43:57.861Z,99643.63
2023-04-01T18:46:46.980Z,99647.75
2023-04-01T18:49:44.632Z,99644.41
2023-04-01T18:52:21.436Z,99653.97
2023-04-01T18:55:02.034Z,99652.09
2023-04-01T18:57:58.274Z,99662.28
2023-04-01T19:00:44.281Z,99658.16
2023-04-01T19:03:27.668Z,99660.84
2023-04-01T19:06:00.136Z,99660.25
2023-04-01T19:08:35.459Z,99664.69
2023-04-01T19:11:18.050Z,99678.50
2023-04-01T19:14:32.497Z,99669.31
2023-04-01T19:17:11.009Z,99671.28
2023-04-01T19:20:10.641Z,99678.16
2023-04-01T19:22:53.231Z,99684.09
2023-04-01T19:25:35.542Z,99690.84
2023-04-01T19:28:33.192Z,99683.84
2023-04-01T19:31:16.749Z,99695.97
2023-04-01T19:33:55.987Z,99688.03
2023-04-01T19:36:39.911Z,99699.69
2023-04-01T19:39:46.550Z,99706.88
2023-04-01T19:42:42.554Z,99715.66
2023-04-01T19:45:31.792Z,99716.66
2023-04-01T19:48:17.267Z,99717.34
2023-04-01T19:50:48.870Z,99709.72
2023-04-01T19:53:27.169Z,99708.84
2023-04-01T19:56:18.092Z,99706.84
2023-04-01T19:58:55.511Z,99715.38
2023-04-01T20:01:44.907Z,99710.63
2023-04-01T20:04:18.379Z,99709.53
2023-04-01T20:06:51.911Z,99707.06
2023-04-01T20:09:35.070Z,99709.09
2023-04-01T20:12:13.232Z,99709.94
2023-04-01T20:14:50.074Z,99706.88
2023-04-01T20:17:25.851Z,99715.59
2023-04-01T20:20:20.061Z,99708.41
2023-04-01T20:34:00.734Z,99706.91
2023-04-01T20:37:12.291Z,99708.09
2023-04-01T20:40:05.438Z,99723.06
2023-04-01T20:43:21.509Z,99716.75
2023-04-01T20:46:10.410Z,99720.53
2023-04-01T20:49:14.628Z,99731.22
2023-04-01T20:51:57.216Z,99727.84
2023-04-01T20:55:10.864Z,99722.56
2023-04-01T20:57:47.354Z,99730.84
2023-04-01T21:00:19.132Z,99735.91
2023-04-01T21:03:19.210Z,99744.94
2023-04-01T21:22:45.696Z,99755.63
2023-04-01T21:26:09.895Z,99768.00
2023-04-01T21:28:55.152Z,99778.81
2023-04-01T21:31:22.629Z,99777.03
2023-04-01T21:34:27.424Z,99774.28
2023-04-01T21:36:55.099Z,99785.59
2023-04-01T21:39:42.423Z,99779.78
2023-04-01T21:42:43.789Z,99773.84
2023-04-01T21:45:19.176Z,99777.47
2023-04-01T21:48:08.369Z,99779.72
2023-04-01T21:50:57.160Z,99785.34
2023-04-01T21:54:09.960Z,99770.09
2023-04-01T21:56:46.332Z,99769.38
2023-04-01T21:59:44.594Z,99777.13
2023-04-01T22:02:33.708Z,99768.94
2023-04-01T22:05:23.634Z,99770.28
2023-04-01T22:07:57.474Z,99764.56
2023-04-01T22:10:42.573Z,99757.19
2023-04-01T22:13:44.505Z,99759.19
2023-04-01T22:16:41.080Z,99770.31
2023-04-01T22:19:42.976Z,99770.41
2023-04-01T22:22:52.720Z,99763.66
2023-04-01T22:25:30.385Z,99764.50
2023-04-01T22:50:35.483Z,99774.91
2023-04-01T22:53:15.460Z,99779.03
2023-04-01T22:56:03.366Z,99781.25
2023-04-01T22:58:41.718Z,99760.19
2023-04-01T23:01:17.859Z,99762.50
2023-04-01T23:03:48.661Z,99773.94
2023-04-01T23:06:28.056Z,99770.03
2023-04-01T23:09:27.949Z,99777.69
2023-04-01T23:12:04.529Z,99778.03
2023-04-01T23:14:41.870Z,99778.41
2023-04-01T23:17:36.564Z,99771.25
2023-04-01T23:20:13.618Z,99772.94
2023-04-01T23:22:57.801Z,99777.81
2023-04-01T23:25:37.419Z,99768.34
2023-04-01T23:28:41.540Z,99772.56
2023-04-01T23:31:30.506Z,99770.50
2023-04-01T23:34:01.893Z,99774.88
2023-04-01T23:36:32.025Z,99769.44
2023-04-01T23:39:04.596Z,99761.66
2023-04-01T23:41:33.973Z,99768.66
2023-04-01T23:44:06.460Z,99770.19
2023-04-01T23:46:36.816Z,99781.72
2023-04-01T23:49:06.268Z,99779.06
2023-04-01T23:51:40.682Z,99784.78
2023-04-01T23:54:28.100Z,99781.88
2023-04-01T23:56:57.762Z,99776.06
2023-04-01T23:59:30.140Z,99786.44
